Time;durP1;ratioP1;P1;durP2;ratioP2;P2;SDS_P1;SDS_P2;PMS_P1;PMS_P2;Temp;Humidity;BMP_temperature;BMP_pressure;BME280_temperature;BME280_humidity;BME280_pressure;Samples;Min_cycle;Max_cycle;Signal;HPM_P1;HPM_P2
2023/05/03 00:01:28;;;;;;;5.13;3.70;;;;;;;5.19;81.05;102046.81;4998919;28;20217;-69
2023/05/03 00:03:54;;;;;;;5.23;4.03;;;;;;;5.20;80.62;102058.09;4995503;28;20229;-69
2023/05/03 00:06:21;;;;;;;10.73;4.73;;;;;;;5.23;80.75;102047.91;4997749;28;20225;-69
2023/05/03 00:08:48;;;;;;;7.23;4.07;;;;;;;5.28;81.01;102055.78;4999240;28;20251;-69
2023/05/03 00:11:14;;;;;;;8.07;4.23;;;;;;;5.33;81.16;102055.03;5001038;28;20225;-69
2023/05/03 00:13:42;;;;;;;7.47;4.10;;;;;;;5.35;81.09;102060.78;4997357;28;20232;-69
2023/05/03 00:16:08;;;;;;;7.33;3.90;;;;;;;5.37;81.31;102054.25;4994849;28;20255;-69
2023/05/03 00:18:35;;;;;;;7.00;4.20;;;;;;;5.40;81.34;102050.34;4999836;28;20215;-69
2023/05/03 00:21:02;;;;;;;6.83;4.30;;;;;;;5.38;81.11;102047.22;4996760;28;20212;-69
2023/05/03 00:23:28;;;;;;;6.37;4.17;;;;;;;5.40;80.97;102048.53;5013459;28;20249;-69
2023/05/03 00:25:56;;;;;;;8.13;4.47;;;;;;;5.38;80.69;102049.81;4994694;28;20224;-69
2023/05/03 00:28:23;;;;;;;5.37;3.73;;;;;;;5.38;80.87;102042.75;4999904;28;20204;-70
2023/05/03 00:30:50;;;;;;;9.27;4.20;;;;;;;5.36;81.13;102044.03;4991369;28;20213;-69
2023/05/03 00:33:18;;;;;;;9.13;4.47;;;;;;;5.33;81.00;102037.47;4996405;28;20733;-69
2023/05/03 00:35:45;;;;;;;8.73;4.67;;;;;;;5.28;80.93;102041.91;4995774;28;20628;-68
2023/05/03 00:38:13;;;;;;;7.97;4.30;;;;;;;5.25;81.27;102037.97;4995673;28;20634;-69
2023/05/03 00:40:39;;;;;;;11.90;4.13;;;;;;;5.21;81.05;102043.97;4996174;28;20206;-69
2023/05/03 00:43:06;;;;;;;5.13;3.67;;;;;;;5.16;81.12;102051.78;4996216;28;20236;-69
2023/05/03 00:45:33;;;;;;;9.40;4.23;;;;;;;5.11;81.57;102047.31;5011500;28;20302;-69
2023/05/03 00:48:01;;;;;;;8.97;4.70;;;;;;;5.07;81.44;102043.63;5014418;28;20571;-69
2023/05/03 00:50:28;;;;;;;5.83;4.27;;;;;;;5.02;81.50;102042.81;4997858;28;20209;-69
2023/05/03 00:52:54;;;;;;;7.77;4.33;;;;;;;4.97;81.81;102040.94;4998454;28;20209;-69
2023/05/03 00:55:21;;;;;;;10.23;4.73;;;;;;;4.89;81.94;102041.44;4992594;28;20205;-69
2023/05/03 00:57:47;;;;;;;12.50;5.30;;;;;;;4.84;81.86;102033.53;4998497;28;20638;-69
2023/05/03 01:00:16;;;;;;;9.70;6.07;;;;;;;4.79;81.81;102037.94;4994790;28;20705;-69
2023/05/03 01:02:43;;;;;;;9.73;6.40;;;;;;;4.71;81.72;102030.56;4995467;28;20212;-69
2023/05/03 01:05:11;;;;;;;11.40;5.93;;;;;;;4.66;82.07;102035.78;4994834;28;20221;-69
2023/05/03 01:07:45;;;;;;;9.23;5.57;;;;;;;4.63;82.24;102033.63;5012292;28;20311;-69
2023/05/03 01:10:20;;;;;;;11.30;6.47;;;;;;;4.58;82.65;102030.97;4997565;28;20705;-69
2023/05/03 01:12:54;;;;;;;8.73;5.67;;;;;;;4.51;82.92;102036.41;4993710;28;20679;-70
2023/05/03 01:15:36;;;;;;;11.40;5.00;;;;;;;4.46;82.70;102040.84;5006359;28;20290;-69
2023/05/03 01:18:11;;;;;;;11.67;5.53;;;;;;;4.40;82.89;102044.44;4996529;28;20468;-69
2023/05/03 01:20:44;;;;;;;8.57;5.40;;;;;;;4.34;82.81;102038.38;4996992;28;20526;-69
2023/05/03 01:23:18;;;;;;;10.73;5.30;;;;;;;4.27;82.64;102039.63;5008166;28;20290;-69
2023/05/03 01:25:46;;;;;;;6.93;5.03;;;;;;;4.20;82.69;102034.56;4994510;28;20231;-69
2023/05/03 01:28:12;;;;;;;10.57;4.97;;;;;;;4.18;82.59;102038.47;4997888;28;20217;-70
2023/05/03 01:30:40;;;;;;;8.07;4.70;;;;;;;4.12;82.29;102031.63;5013532;28;20213;-69
2023/05/03 01:33:13;;;;;;;4.93;3.73;;;;;;;4.11;82.97;102028.25;4993637;28;20216;-68
2023/05/03 01:35:41;;;;;;;7.67;4.77;;;;;;;4.05;83.41;102038.88;4997699;28;20200;-69
2023/05/03 01:38:08;;;;;;;7.10;4.80;;;;;;;3.98;82.99;102027.81;4991441;28;20265;-69
2023/05/03 01:40:42;;;;;;;8.17;4.30;;;;;;;3.94;83.05;102024.16;4996821;28;20240;-69
2023/05/03 01:43:12;;;;;;;11.50;4.23;;;;;;;3.91;83.31;102028.03;4993851;28;20579;-69
2023/05/03 01:45:40;;;;;;;9.10;4.90;;;;;;;3.88;82.54;102030.34;4994674;28;20216;-69
2023/05/03 01:48:10;;;;;;;6.80;4.43;;;;;;;3.83;82.39;102028.47;4995603;28;20207;-69
2023/05/03 01:50:36;;;;;;;8.07;4.33;;;;;;;3.82;83.09;102029.50;4998260;28;20674;-70
2023/05/03 01:53:03;;;;;;;8.93;5.17;;;;;;;3.75;81.83;102047.19;4993929;28;20212;-69
2023/05/03 01:55:29;;;;;;;8.07;4.40;;;;;;;3.72;81.40;102039.03;5009273;28;20204;-69
2023/05/03 01:57:56;;;;;;;6.87;4.67;;;;;;;3.72;82.15;102034.63;5009844;28;20563;-68
2023/05/03 02:00:24;;;;;;;10.20;4.53;;;;;;;3.69;81.35;102035.09;4994641;28;20364;-69
2023/05/03 02:02:50;;;;;;;8.30;4.43;;;;;;;3.70;81.93;102036.69;4995149;28;20307;-69
2023/05/03 02:05:17;;;;;;;7.40;4.97;;;;;;;3.71;82.47;102040.06;4993399;28;20224;-69
2023/05/03 02:07:43;;;;;;;8.87;5.30;;;;;;;3.74;82.47;102039.59;4998533;28;20223;-69
2023/05/03 02:10:13;;;;;;;8.70;5.07;;;;;;;3.77;82.71;102033.88;4996571;28;20287;-69
2023/05/03 02:12:39;;;;;;;9.77;5.30;;;;;;;3.78;83.08;102038.09;4994839;28;20204;-69
2023/05/03 02:15:07;;;;;;;10.33;5.30;;;;;;;3.80;83.20;102049.06;4995702;28;20228;-69
2023/05/03 02:17:36;;;;;;;8.13;4.47;;;;;;;3.83;83.59;102038.91;5010216;28;20301;-69
2023/05/03 02:20:05;;;;;;;12.13;4.87;;;;;;;3.84;83.85;102031.88;4995568;28;20286;-70
2023/05/03 02:22:31;;;;;;;7.60;4.80;;;;;;;3.87;84.14;102034.78;4995338;28;20262;-69
2023/05/03 02:24:58;;;;;;;9.07;5.23;;;;;;;3.87;84.34;102033.97;4996836;28;20236;-69
2023/05/03 02:27:24;;;;;;;6.47;4.77;;;;;;;3.88;84.37;102038.19;5008281;28;20323;-69
2023/05/03 02:29:51;;;;;;;11.27;5.47;;;;;;;3.88;83.90;102035.59;4997852;28;20216;-69
2023/05/03 02:32:19;;;;;;;8.67;4.40;;;;;;;3.90;83.97;102034.31;4994974;28;20544;-69
2023/05/03 02:34:49;;;;;;;6.77;5.03;;;;;;;3.90;84.25;102038.72;4996334;28;20312;-69
2023/05/03 02:37:20;;;;;;;7.10;4.90;;;;;;;3.89;84.72;102040.53;4995350;28;20208;-69
2023/05/03 02:39:47;;;;;;;9.93;5.10;;;;;;;3.91;84.81;102042.91;4992321;28;20220;-68
2023/05/03 02:42:15;;;;;;;10.10;5.23;;;;;;;3.90;84.58;102039.53;4992902;28;20204;-69
2023/05/03 02:44:42;;;;;;;9.47;5.17;;;;;;;3.92;84.82;102041.88;5011764;28;20260;-69
2023/05/03 02:47:09;;;;;;;8.67;5.20;;;;;;;3.89;84.58;102043.16;5010947;28;20788;-69
2023/05/03 02:49:38;;;;;;;7.97;4.83;;;;;;;3.86;84.60;102041.06;5009561;28;20208;-69
2023/05/03 02:52:07;;;;;;;11.10;5.13;;;;;;;3.86;84.51;102038.44;4992699;28;20239;-68
2023/05/03 02:54:34;;;;;;;10.33;5.07;;;;;;;3.86;84.54;102048.09;4995364;28;20225;-69
2023/05/03 02:57:06;;;;;;;7.10;4.90;;;;;;;3.87;84.79;102047.03;5015873;28;20209;-68
2023/05/03 02:59:32;;;;;;;6.77;4.60;;;;;;;3.88;84.57;102049.41;5013376;28;20691;-69
2023/05/03 03:02:00;;;;;;;10.10;5.27;;;;;;;3.90;85.01;102051.78;4998979;28;20683;-69
2023/05/03 03:04:27;;;;;;;8.53;4.87;;;;;;;3.89;85.13;102045.75;4995962;28;20236;-69
2023/05/03 03:06:53;;;;;;;9.03;5.00;;;;;;;3.91;84.73;102051.56;4999410;28;20327;-69
2023/05/03 03:09:21;;;;;;;8.33;5.17;;;;;;;3.94;84.51;102050.28;4998638;28;20587;-68
2023/05/03 03:11:48;;;;;;;7.87;4.60;;;;;;;3.98;84.71;102059.97;4999719;28;20236;-69
2023/05/03 03:14:15;;;;;;;6.93;4.67;;;;;;;4.00;84.54;102059.75;4995198;28;20266;-70
2023/05/03 03:16:42;;;;;;;7.90;4.77;;;;;;;4.01;84.92;102064.72;5012929;28;20290;-69
2023/05/03 03:19:08;;;;;;;11.53;5.30;;;;;;;4.05;84.74;102060.56;5000569;28;20199;-69
2023/05/03 03:21:35;;;;;;;8.80;5.60;;;;;;;4.08;84.51;102065.31;4992920;28;20822;-69
2023/05/03 03:24:02;;;;;;;8.53;5.40;;;;;;;4.12;84.71;102065.59;4997285;28;20587;-69
2023/05/03 03:26:30;;;;;;;10.63;5.30;;;;;;;4.15;84.91;102062.50;5014695;28;20225;-69
2023/05/03 03:28:57;;;;;;;8.07;5.37;;;;;;;4.17;85.16;102065.66;4998993;28;20300;-70
2023/05/03 03:31:24;;;;;;;9.20;5.40;;;;;;;4.19;84.48;102066.22;4998818;28;20209;-69
2023/05/03 03:33:52;;;;;;;7.63;5.43;;;;;;;4.20;84.17;102081.63;4997100;28;20420;-69
2023/05/03 03:36:20;;;;;;;9.40;5.13;;;;;;;4.26;84.44;102077.25;4998137;28;20482;-69
2023/05/03 03:38:48;;;;;;;9.03;4.90;;;;;;;4.29;84.64;102079.38;5000827;28;20537;-69
2023/05/03 03:41:15;;;;;;;9.33;5.17;;;;;;;4.34;84.51;102085.44;4998162;28;20208;-69
2023/05/03 03:43:43;;;;;;;8.83;5.17;;;;;;;4.35;84.76;102087.00;4997312;28;20224;-69
2023/05/03 03:46:16;;;;;;;8.27;5.50;;;;;;;4.36;84.29;102093.03;5010221;28;20318;-69
2023/05/03 03:48:43;;;;;;;9.73;5.47;;;;;;;4.41;84.20;102096.47;4996220;28;20209;-68
2023/05/03 03:51:10;;;;;;;8.40;4.73;;;;;;;4.46;84.14;102099.16;5014341;28;20200;-69
2023/05/03 03:53:42;;;;;;;8.53;5.40;;;;;;;4.50;84.41;102107.31;5009329;28;20311;-69
2023/05/03 03:56:09;;;;;;;8.40;5.37;;;;;;;4.56;84.78;102099.25;5013552;28;20220;-68
2023/05/03 03:58:35;;;;;;;7.73;5.30;;;;;;;4.61;84.66;102104.50;5013050;28;20231;-69
2023/05/03 04:01:05;;;;;;;8.27;5.77;;;;;;;4.64;84.63;102105.84;4997217;28;20259;-68
2023/05/03 04:03:32;;;;;;;7.07;4.73;;;;;;;4.70;84.56;102110.88;4992673;28;20236;-69
2023/05/03 04:05:59;;;;;;;7.77;5.07;;;;;;;4.77;84.59;102105.44;4994151;28;20282;-69
2023/05/03 04:08:27;;;;;;;19.80;5.67;;;;;;;4.84;84.62;102106.81;5011667;28;20350;-69
2023/05/03 04:10:53;;;;;;;8.73;5.30;;;;;;;4.89;84.78;102113.91;4997541;28;20594;-68
2023/05/03 04:13:20;;;;;;;8.33;5.30;;;;;;;4.93;84.40;102112.38;5011514;28;20217;-69
2023/05/03 04:15:54;;;;;;;8.80;5.50;;;;;;;4.99;84.40;102114.78;4997204;28;20204;-69
2023/05/03 04:18:22;;;;;;;11.03;5.80;;;;;;;5.04;84.33;102119.25;5015136;28;20629;-69
2023/05/03 04:20:48;;;;;;;12.23;5.77;;;;;;;5.10;83.84;102119.06;4995288;28;20213;-68
2023/05/03 04:23:16;;;;;;;7.37;5.30;;;;;;;5.14;83.51;102116.72;4993842;28;20220;-69
2023/05/03 04:25:45;;;;;;;7.17;5.07;;;;;;;5.18;83.44;102121.19;4989692;28;20721;-69
2023/05/03 04:28:13;;;;;;;9.07;5.27;;;;;;;5.24;82.77;102125.41;4988115;28;20320;-68
2023/05/03 04:30:43;;;;;;;6.90;5.43;;;;;;;5.31;82.64;102133.06;5018539;23;20599;-74
2023/05/03 04:33:10;;;;;;;6.73;4.80;;;;;;;5.38;82.27;102136.25;5043601;28;20209;-74
2023/05/03 04:35:39;;;;;;;11.00;5.57;;;;;;;5.44;81.78;102130.78;5026272;28;20270;-73
2023/05/03 04:38:09;;;;;;;6.33;4.70;;;;;;;5.49;81.28;102137.91;5027485;28;20604;-74
2023/05/03 04:40:36;;;;;;;8.50;5.60;;;;;;;5.55;80.32;102142.13;5045412;28;20728;-72
2023/05/03 04:43:07;;;;;;;9.50;5.50;;;;;;;5.63;79.95;102154.72;5026665;23;20666;-71
2023/05/03 04:45:37;;;;;;;9.77;4.80;;;;;;;5.68;79.40;102147.69;5006218;28;20227;-72
2023/05/03 04:48:38;;;;;;;10.60;5.20;;;;;;;5.75;79.44;102148.22;5011737;28;20219;-72
2023/05/03 04:51:22;;;;;;;11.37;4.90;;;;;;;5.81;79.05;102159.56;5009289;28;20497;-72
2023/05/03 04:54:00;;;;;;;8.80;4.53;;;;;;;5.87;78.95;102156.72;4988813;28;20802;-71
2023/05/03 04:56:57;;;;;;;6.03;4.00;;;;;;;5.96;78.89;102160.41;4988861;28;20219;-72
2023/05/03 04:59:27;;;;;;;8.50;4.67;;;;;;;6.02;77.26;102156.75;5000607;28;20267;-72
2023/05/03 05:02:02;;;;;;;7.77;4.17;;;;;;;6.10;77.78;102163.34;4983164;28;20237;-72
2023/05/03 05:04:46;;;;;;;5.27;4.07;;;;;;;6.15;77.23;102158.13;4988767;28;20208;-71
2023/05/03 05:07:15;;;;;;;5.93;3.60;;;;;;;6.22;76.30;102167.31;5007464;28;20338;-71
2023/05/03 05:09:56;;;;;;;6.73;3.73;;;;;;;6.29;75.67;102165.28;4990885;28;20234;-72
2023/05/03 05:12:36;;;;;;;5.33;3.40;;;;;;;6.35;75.26;102166.84;4983454;28;20795;-72
2023/05/03 05:15:06;;;;;;;4.80;3.63;;;;;;;6.41;73.97;102168.44;5011484;28;20208;-71
2023/05/03 05:17:33;;;;;;;5.93;3.40;;;;;;;6.47;74.39;102167.41;4997574;28;20662;-72
2023/05/03 05:20:06;;;;;;;8.50;3.83;;;;;;;6.55;74.11;102171.34;4995783;28;20204;-71
2023/05/03 05:22:48;;;;;;;7.30;3.43;;;;;;;6.60;72.44;102174.00;4997270;28;20200;-71
2023/05/03 05:25:20;;;;;;;3.30;2.97;;;;;;;6.69;73.09;102177.69;5012489;28;20243;-71
2023/05/03 05:27:46;;;;;;;4.83;2.80;;;;;;;6.74;72.83;102178.47;5008745;28;20229;-72
2023/05/03 05:30:41;;;;;;;4.23;3.10;;;;;;;6.80;73.02;102179.28;5009490;28;20213;-71
2023/05/03 05:33:33;;;;;;;5.57;3.00;;;;;;;6.90;73.32;102176.66;5007634;28;20670;-72
2023/05/03 05:36:08;;;;;;;4.57;3.00;;;;;;;6.97;72.72;102185.06;5007867;28;20271;-71
2023/05/03 05:39:03;;;;;;;6.97;3.17;;;;;;;7.06;72.15;102181.66;5002815;28;20292;-72
2023/05/03 05:41:41;;;;;;;4.20;2.87;;;;;;;7.13;71.50;102186.63;4989534;28;20327;-72
2023/05/03 05:44:16;;;;;;;3.57;2.63;;;;;;;7.18;70.54;102189.25;4986854;28;20228;-72
2023/05/03 05:49:51;;;;;;;5.03;3.37;;;;;;;7.29;70.87;102193.44;4992675;28;20291;-72
2023/05/03 05:52:17;;;;;;;3.93;2.73;;;;;;;7.33;71.02;102202.38;4994766;28;20262;-72
2023/05/03 05:54:45;;;;;;;5.53;3.37;;;;;;;7.35;70.59;102200.31;5010492;28;20251;-72
2023/05/03 05:57:12;;;;;;;4.73;2.60;;;;;;;7.37;71.03;102203.44;5005084;28;20204;-72
2023/05/03 05:59:39;;;;;;;5.73;3.10;;;;;;;7.37;70.25;102200.81;4982310;28;20575;-72
2023/05/03 06:02:15;;;;;;;4.73;2.57;;;;;;;7.39;71.67;102203.94;4999011;28;20228;-72
2023/05/03 06:05:21;;;;;;;4.60;2.83;;;;;;;7.40;69.59;102195.03;5010139;28;20307;-72
2023/05/03 06:08:01;;;;;;;3.80;2.87;;;;;;;7.46;71.08;102199.22;4991946;28;20679;-72
2023/05/03 06:10:29;;;;;;;3.83;2.57;;;;;;;7.48;70.06;102205.00;4995318;28;20227;-71
2023/05/03 06:12:57;;;;;;;7.90;3.00;;;;;;;7.50;69.02;102200.28;4993205;28;20271;-72
2023/05/03 06:15:26;;;;;;;5.17;2.80;;;;;;;7.50;69.43;102197.66;4998560;28;20220;-72
2023/05/03 06:17:53;;;;;;;5.53;3.17;;;;;;;7.54;70.17;102201.31;4996878;28;20220;-72
2023/05/03 06:20:26;;;;;;;5.63;3.00;;;;;;;7.58;68.26;102205.00;4993544;28;20229;-72
2023/05/03 06:22:54;;;;;;;6.00;3.23;;;;;;;7.62;68.83;102212.06;5009316;28;20200;-72
2023/05/03 06:25:23;;;;;;;4.43;2.80;;;;;;;7.68;67.59;102205.78;5007646;28;20260;-72
2023/05/03 06:27:55;;;;;;;6.40;3.50;;;;;;;7.74;67.79;102214.41;5011698;28;20295;-72
2023/05/03 06:30:27;;;;;;;8.10;2.70;;;;;;;7.81;67.78;102215.72;5019091;28;20220;-72
2023/05/03 06:32:59;;;;;;;5.43;2.53;;;;;;;7.87;66.12;102214.63;5000761;28;20674;-72
2023/05/03 06:35:27;;;;;;;5.23;3.00;;;;;;;7.93;67.81;102221.47;5017042;28;20239;-72
2023/05/03 06:37:54;;;;;;;3.90;2.30;;;;;;;8.00;66.23;102221.97;5017903;28;20282;-72
2023/05/03 06:40:23;;;;;;;4.03;2.90;;;;;;;8.07;64.96;102225.09;5017843;28;20226;-72
2023/05/03 06:42:50;;;;;;;5.23;2.83;;;;;;;8.12;67.78;102219.81;5002189;28;20228;-72
2023/05/03 06:45:36;;;;;;;5.20;2.47;;;;;;;8.21;64.83;102220.88;5016218;28;20300;-72
2023/05/03 06:48:12;;;;;;;3.63;2.50;;;;;;;8.30;63.67;102227.16;4999147;28;20236;-72
2023/05/03 06:50:51;;;;;;;3.50;2.53;;;;;;;8.38;64.19;102225.81;5000333;28;20244;-72
2023/05/03 06:53:45;;;;;;;4.00;2.63;;;;;;;8.47;65.49;102221.53;5002252;28;20231;-72
2023/05/03 06:56:11;;;;;;;6.23;2.43;;;;;;;8.56;64.23;102225.19;4999910;28;20247;-72
2023/05/03 06:58:37;;;;;;;4.07;2.57;;;;;;;8.66;62.93;102227.75;5001448;28;20204;-72
2023/05/03 07:01:08;;;;;;;4.03;2.23;;;;;;;8.76;63.61;102219.81;5001562;28;20232;-73
2023/05/03 07:03:42;;;;;;;3.60;2.40;;;;;;;8.86;65.93;102223.16;5002125;28;20291;-73
2023/05/03 07:06:17;;;;;;;7.47;2.43;;;;;;;8.96;64.39;102228.34;4999747;28;20208;-72
2023/05/03 07:08:43;;;;;;;4.77;2.70;;;;;;;9.07;62.77;102223.81;5015863;28;20204;-72
2023/05/03 07:11:10;;;;;;;8.20;2.67;;;;;;;9.17;62.10;102221.09;5000829;28;20703;-72
2023/05/03 07:13:39;;;;;;;4.37;2.10;;;;;;;9.23;61.71;102222.63;5001199;28;20557;-73
2023/05/03 07:16:07;;;;;;;2.90;2.10;;;;;;;9.27;60.48;102223.66;4998211;28;20198;-72
2023/05/03 07:18:40;;;;;;;3.30;2.40;;;;;;;9.34;60.61;102218.81;5003134;28;20562;-73
2023/05/03 07:21:07;;;;;;;3.87;2.10;;;;;;;9.41;63.21;102224.56;5000055;28;20716;-72
2023/05/03 07:23:45;;;;;;;3.47;2.30;;;;;;;9.51;59.90;102227.91;4999034;28;20202;-72
2023/05/03 07:26:12;;;;;;;4.13;2.40;;;;;;;9.58;59.85;102228.34;4997778;28;20209;-72
2023/05/03 07:31:35;;;;;;;6.37;2.63;;;;;;;9.75;60.04;102222.66;4999984;28;20569;-72
2023/05/03 07:34:02;;;;;;;2.93;2.20;;;;;;;9.83;59.98;102222.06;5001204;28;20204;-72
2023/05/03 07:36:28;;;;;;;3.47;2.57;;;;;;;9.92;63.12;102223.78;5003495;28;20211;-72
2023/05/03 07:38:55;;;;;;;3.33;2.10;;;;;;;10.00;60.62;102222.38;4999182;28;20297;-72
2023/05/03 07:41:27;;;;;;;3.17;2.50;;;;;;;10.10;59.49;102225.72;5018398;28;20223;-72
2023/05/03 07:43:54;;;;;;;5.37;2.07;;;;;;;10.21;56.98;102224.56;5003705;28;20216;-72
2023/05/03 07:46:24;;;;;;;4.13;2.17;;;;;;;10.34;55.12;102220.41;5005830;28;20208;-72
2023/05/03 07:48:57;;;;;;;9.33;2.80;;;;;;;10.47;54.04;102215.22;5006827;28;20756;-72
2023/05/03 07:51:24;;;;;;;5.07;2.67;;;;;;;10.62;56.76;102209.72;5006337;28;20351;-72
2023/05/03 07:54:04;;;;;;;3.53;2.20;;;;;;;10.77;56.83;102211.38;5002582;28;20756;-72
2023/05/03 07:56:34;;;;;;;4.43;2.83;;;;;;;10.88;54.21;102218.06;5005571;28;20670;-72
2023/05/03 07:59:03;;;;;;;2.57;2.00;;;;;;;10.97;57.42;102213.72;5004351;28;20204;-72
2023/05/03 08:01:30;;;;;;;5.43;2.07;;;;;;;11.04;54.95;102219.41;5003070;28;20657;-72
2023/05/03 08:04:04;;;;;;;5.43;2.33;;;;;;;11.14;53.95;102216.59;5006663;28;20593;-73
2023/05/03 08:06:31;;;;;;;4.90;2.00;;;;;;;11.23;56.80;102214.88;5021686;28;20209;-72
2023/05/03 08:09:05;;;;;;;3.53;2.10;;;;;;;11.32;52.24;102213.13;5017327;28;20642;-72
2023/05/03 08:11:42;;;;;;;3.53;1.80;;;;;;;11.41;52.33;102211.38;5018432;28;20311;-72
2023/05/03 08:14:11;;;;;;;5.03;2.00;;;;;;;11.49;54.99;102206.19;5003321;28;20200;-72
2023/05/03 08:16:37;;;;;;;5.20;2.17;;;;;;;11.57;54.50;102213.47;5003153;28;20208;-72
2023/05/03 08:19:08;;;;;;;3.33;2.00;;;;;;;11.64;51.22;102216.53;5018855;28;20269;-72
2023/05/03 08:21:41;;;;;;;2.67;1.77;;;;;;;11.70;53.68;102209.31;5002363;28;20228;-72
2023/05/03 08:24:12;;;;;;;5.50;2.23;;;;;;;11.71;50.94;102213.53;4999578;28;20613;-72
2023/05/03 08:26:42;;;;;;;4.07;1.73;;;;;;;11.78;52.64;102213.91;5002956;28;20246;-72
2023/05/03 08:29:19;;;;;;;2.30;2.00;;;;;;;11.83;53.17;102211.16;5018594;28;20205;-72
2023/05/03 08:31:46;;;;;;;3.57;2.13;;;;;;;11.88;59.47;102211.06;5017157;28;20231;-72
2023/05/03 08:34:16;;;;;;;2.27;1.83;;;;;;;11.92;51.00;102214.72;5001275;28;20743;-72
2023/05/03 08:36:45;;;;;;;3.27;1.90;;;;;;;12.01;51.56;102219.00;5000797;28;20843;-72
2023/05/03 08:39:16;;;;;;;3.90;2.27;;;;;;;12.13;50.40;102215.88;5002677;28;20211;-72
2023/05/03 08:41:45;;;;;;;3.17;2.27;;;;;;;12.24;52.76;102223.31;5004839;28;20748;-72
2023/05/03 08:44:21;;;;;;;5.43;2.00;;;;;;;12.37;53.03;102217.19;5001960;28;20292;-72
2023/05/03 08:46:47;;;;;;;2.83;1.80;;;;;;;12.43;48.53;102217.91;5016089;28;20208;-73
2023/05/03 08:49:17;;;;;;;3.40;1.60;;;;;;;12.54;52.70;102222.69;5001253;28;20208;-73
2023/05/03 08:51:45;;;;;;;4.07;1.60;;;;;;;12.71;48.21;102227.31;5003335;28;20216;-73
2023/05/03 08:54:13;;;;;;;3.93;1.90;;;;;;;12.83;48.28;102225.72;5001354;28;20282;-72
2023/05/03 08:56:42;;;;;;;4.37;1.90;;;;;;;12.93;45.86;102219.41;5000526;28;20217;-73
2023/05/03 08:59:08;;;;;;;4.20;2.00;;;;;;;13.06;49.14;102215.94;5012283;28;20193;-72
2023/05/03 09:01:35;;;;;;;3.33;1.73;;;;;;;13.19;50.13;102218.53;5016451;28;20757;-73
2023/05/03 09:04:02;;;;;;;3.17;1.90;;;;;;;13.28;48.74;102222.00;5003736;28;20416;-72
2023/05/03 09:06:31;;;;;;;6.20;2.07;;;;;;;13.34;44.60;102218.16;5002994;28;20202;-72
2023/05/03 09:08:58;;;;;;;3.50;1.57;;;;;;;13.38;46.61;102211.16;4999855;28;20216;-73
2023/05/03 09:11:40;;;;;;;3.33;1.83;;;;;;;13.43;48.31;102224.28;5000270;28;20220;-72
2023/05/03 09:14:12;;;;;;;3.30;1.60;;;;;;;13.48;46.29;102218.84;4993064;28;20720;-72
2023/05/03 09:16:43;;;;;;;2.57;1.73;;;;;;;13.53;48.12;102226.69;5014883;28;20673;-72
2023/05/03 09:19:14;;;;;;;3.60;1.90;;;;;;;13.59;49.18;102220.16;5015368;28;20302;-72
2023/05/03 09:21:44;;;;;;;3.53;1.70;;;;;;;13.66;47.41;102225.03;4999314;28;20839;-72
2023/05/03 09:24:25;;;;;;;3.10;1.80;;;;;;;13.74;48.06;102211.78;4996355;28;20201;-72
2023/05/03 09:26:53;;;;;;;3.70;1.87;;;;;;;13.82;47.56;102216.31;5015995;28;20231;-72
2023/05/03 09:29:29;;;;;;;2.90;1.83;;;;;;;13.81;44.57;102228.03;5012401;28;20605;-72
2023/05/03 09:32:00;;;;;;;3.10;1.90;;;;;;;13.79;48.46;102222.28;5016615;28;20222;-72
2023/05/03 09:34:27;;;;;;;2.07;1.60;;;;;;;13.62;45.51;102219.53;4996221;28;20223;-72
2023/05/03 09:36:55;;;;;;;3.10;1.90;;;;;;;13.65;45.77;102224.22;4998083;28;20211;-72
2023/05/03 09:39:21;;;;;;;4.00;2.30;;;;;;;13.63;45.77;102220.31;5003086;28;20256;-72
2023/05/03 09:41:48;;;;;;;3.00;1.77;;;;;;;13.66;45.90;102219.72;5001345;28;20234;-73
2023/05/03 09:44:14;;;;;;;2.00;1.70;;;;;;;13.68;47.56;102222.84;4998560;28;20200;-72
2023/05/03 09:47:02;;;;;;;4.57;2.13;;;;;;;13.75;44.46;102217.84;5000600;28;20201;-72
2023/05/03 09:49:36;;;;;;;4.50;1.70;;;;;;;13.87;51.15;102220.75;5013139;28;20203;-72
2023/05/03 09:52:08;;;;;;;5.67;1.87;;;;;;;14.01;46.79;102221.38;5000916;28;20218;-72
2023/05/03 09:54:49;;;;;;;2.83;1.70;;;;;;;14.20;44.27;102214.78;4999174;28;20211;-72
2023/05/03 09:57:31;;;;;;;3.97;1.50;;;;;;;14.41;44.35;102210.44;4998229;28;20221;-72
2023/05/03 10:00:00;;;;;;;2.17;1.73;;;;;;;14.58;42.75;102213.09;5016241;28;20305;-72
2023/05/03 10:02:27;;;;;;;2.17;1.60;;;;;;;14.75;41.68;102207.75;5017431;28;20282;-72
2023/05/03 10:04:58;;;;;;;1.60;1.50;;;;;;;14.87;42.88;102210.59;5020050;28;20212;-72
2023/05/03 10:07:28;;;;;;;2.27;1.60;;;;;;;14.79;46.82;102216.69;5002108;28;20294;-73
2023/05/03 10:09:55;;;;;;;7.07;1.60;;;;;;;14.85;41.95;102210.09;5000637;28;20214;-73
2023/05/03 10:12:22;;;;;;;2.70;1.60;;;;;;;15.01;49.94;102200.53;5003067;28;20290;-72
2023/05/03 10:14:52;;;;;;;2.27;1.40;;;;;;;15.12;48.61;102196.44;4999913;28;20201;-72
2023/05/03 10:17:25;;;;;;;2.93;1.73;;;;;;;15.14;43.62;102199.59;5001434;28;20200;-72
2023/05/03 10:19:55;;;;;;;4.13;1.70;;;;;;;15.15;42.00;102184.38;5012562;28;20243;-72
2023/05/03 10:22:30;;;;;;;4.60;1.47;;;;;;;15.17;40.07;102195.50;5004667;28;20742;-73
2023/05/03 10:25:10;;;;;;;2.90;1.60;;;;;;;15.18;47.36;102183.75;5000633;28;20242;-72
2023/05/03 10:27:51;;;;;;;2.43;1.70;;;;;;;15.12;51.40;102190.34;5017635;28;20234;-73
2023/05/03 10:30:29;;;;;;;2.07;1.47;;;;;;;15.04;48.34;102185.81;5002458;28;20289;-72
2023/05/03 10:32:56;;;;;;;2.97;1.77;;;;;;;14.89;40.61;102181.78;5000638;28;20200;-72
2023/05/03 10:35:30;;;;;;;4.37;1.80;;;;;;;14.79;44.10;102187.44;5018167;28;20235;-72
2023/05/03 10:37:58;;;;;;;2.17;1.40;;;;;;;14.78;48.37;102185.88;5002627;28;20200;-72
2023/05/03 10:40:55;;;;;;;3.10;1.83;;;;;;;14.72;44.03;102189.00;5004335;28;20224;-71
2023/05/03 10:43:45;;;;;;;2.87;1.70;;;;;;;14.73;45.31;102191.34;5001935;28;20285;-71
2023/05/03 10:49:09;;;;;;;4.20;1.73;;;;;;;14.73;47.59;102185.22;4960498;28;20232;-71
2023/05/03 10:51:44;;;;;;;3.30;1.90;;;;;;;14.78;47.63;102182.41;4960436;28;20572;-71
2023/05/03 10:54:12;;;;;;;2.67;1.70;;;;;;;14.84;48.82;102181.94;4958950;28;20240;-71
2023/05/03 10:56:53;;;;;;;3.63;1.93;;;;;;;14.87;47.22;102186.66;4976936;28;20216;-71
2023/05/03 10:59:30;;;;;;;3.57;1.70;;;;;;;14.93;47.73;102187.25;4960632;28;20297;-70
2023/05/03 11:01:56;;;;;;;3.37;1.67;;;;;;;15.00;46.36;102184.91;4959174;28;20207;-71
2023/05/03 11:04:37;;;;;;;3.13;2.00;;;;;;;15.11;43.93;102178.16;4963123;28;20215;-71
2023/05/03 11:07:03;;;;;;;1.93;1.73;;;;;;;15.23;45.24;102175.63;4962020;28;20685;-71
2023/05/03 11:09:33;;;;;;;1.80;1.70;;;;;;;15.35;45.54;102162.44;4962337;28;20222;-71
2023/05/03 11:12:05;;;;;;;5.53;1.90;;;;;;;15.49;45.05;102168.34;4959050;28;20209;-71
2023/05/03 11:14:44;;;;;;;3.03;1.60;;;;;;;15.59;42.96;102168.78;4959916;28;20253;-71
2023/05/03 11:17:10;;;;;;;1.57;1.40;;;;;;;15.70;45.24;102166.53;4977824;28;20218;-71
2023/05/03 11:19:38;;;;;;;5.63;1.80;;;;;;;15.80;46.06;102169.63;4963125;28;20206;-71
2023/05/03 11:22:05;;;;;;;2.40;1.57;;;;;;;15.85;45.07;102176.63;4963278;28;20201;-71
2023/05/03 11:24:33;;;;;;;2.17;1.43;;;;;;;15.80;39.74;102174.16;4963276;28;20221;-71
2023/05/03 11:27:04;;;;;;;7.73;1.90;;;;;;;15.69;40.33;102180.94;4963280;28;20757;-71
2023/05/03 11:29:49;;;;;;;4.30;1.77;;;;;;;15.59;39.17;102170.66;4964907;28;20303;-71
2023/05/03 11:32:17;;;;;;;1.00;1.00;;;;;;;15.57;44.11;102167.56;4962617;28;20736;-71
2023/05/03 11:34:45;;;;;;;2.30;1.40;;;;;;;15.49;43.92;102171.81;4979550;28;20276;-70
2023/05/03 11:37:11;;;;;;;2.73;1.60;;;;;;;15.37;41.45;102161.03;4963933;28;20200;-70
2023/05/03 11:39:39;;;;;;;4.73;1.80;;;;;;;15.36;44.10;102166.69;4962677;28;20269;-71
2023/05/03 11:42:06;;;;;;;4.80;1.50;;;;;;;15.36;45.10;102166.69;4960982;28;20233;-71
2023/05/03 11:44:32;;;;;;;1.93;1.40;;;;;;;15.41;45.94;102161.16;4962509;28;20693;-71
2023/05/03 11:46:59;;;;;;;1.70;1.50;;;;;;;15.46;42.28;102164.44;4963438;28;20211;-71
2023/05/03 11:49:26;;;;;;;2.53;1.40;;;;;;;15.51;42.52;102169.59;4966936;28;20869;-71
2023/05/03 11:51:56;;;;;;;1.67;1.20;;;;;;;15.56;42.41;102169.41;4961951;28;20227;-71
2023/05/03 11:54:23;;;;;;;5.33;1.80;;;;;;;15.58;39.33;102161.13;4965733;28;20284;-71